Terminal Aerodrome Forecast
Issued by NWS Wilmington, OH

Home | Current Version | Previous Version | Text Only | Print | Product List | Glossary On
Versions: 1 2 3 4 5 6 7 8 9 10 11 12 13 14
000
FTUS41 KILN 071100
TAFDAY
TAF
KDAY 071140Z 0712/0812 20006KT P6SM BKN013 OVC035
     FM071400 22012KT P6SM SCT013 BKN035
     FM071600 22012G20KT P6SM VCTS BKN035CB
      TEMPO 0718/0722 5SM -TSRA BR OVC025CB
     FM072200 23012KT 5SM -SHRA BR VCTS OVC025CB
     FM080800 29010KT 5SM -SHRA BR OVC015=

USA.gov is the U.S. government's official web portal to all federal, state and local government web resources and services.